sensor_id;sensor_type;location;lat;lon;timestamp;P1;durP1;ratioP1;P2;durP2;ratioP2
2892;SDS011;1456;51.840;12.184;2023-05-23T00:01:02;7.57;;;7.47;;
2892;SDS011;1456;51.840;12.184;2023-05-23T00:03:30;8.10;;;7.90;;
2892;SDS011;1456;51.840;12.184;2023-05-23T00:05:57;8.63;;;8.53;;
2892;SDS011;1456;51.840;12.184;2023-05-23T00:08:23;8.20;;;8.10;;
2892;SDS011;1456;51.840;12.184;2023-05-23T00:10:50;8.50;;;8.40;;
2892;SDS011;1456;51.840;12.184;2023-05-23T00:13:17;8.80;;;8.70;;
2892;SDS011;1456;51.840;12.184;2023-05-23T00:15:44;8.93;;;8.83;;
2892;SDS011;1456;51.840;12.184;2023-05-23T00:18:09;8.20;;;8.10;;
2892;SDS011;1456;51.840;12.184;2023-05-23T00:20:41;9.90;;;8.53;;
2892;SDS011;1456;51.840;12.184;2023-05-23T00:23:08;9.63;;;9.40;;
2892;SDS011;1456;51.840;12.184;2023-05-23T00:25:35;7.93;;;7.83;;
2892;SDS011;1456;51.840;12.184;2023-05-23T00:28:01;8.27;;;8.17;;
2892;SDS011;1456;51.840;12.184;2023-05-23T00:30:31;9.30;;;9.03;;
2892;SDS011;1456;51.840;12.184;2023-05-23T00:32:57;8.60;;;8.50;;
2892;SDS011;1456;51.840;12.184;2023-05-23T00:35:24;8.53;;;8.43;;
2892;SDS011;1456;51.840;12.184;2023-05-23T00:37:50;8.50;;;8.40;;
2892;SDS011;1456;51.840;12.184;2023-05-23T00:40:17;9.53;;;9.33;;
2892;SDS011;1456;51.840;12.184;2023-05-23T00:42:46;8.63;;;8.53;;
2892;SDS011;1456;51.840;12.184;2023-05-23T00:45:12;9.30;;;9.10;;
2892;SDS011;1456;51.840;12.184;2023-05-23T00:47:39;9.40;;;9.00;;
2892;SDS011;1456;51.840;12.184;2023-05-23T00:50:08;8.67;;;8.57;;
2892;SDS011;1456;51.840;12.184;2023-05-23T00:52:38;8.57;;;8.47;;
2892;SDS011;1456;51.840;12.184;2023-05-23T00:55:05;8.83;;;8.57;;
2892;SDS011;1456;51.840;12.184;2023-05-23T00:57:32;8.10;;;7.90;;
2892;SDS011;1456;51.840;12.184;2023-05-23T00:59:59;7.80;;;7.60;;
2892;SDS011;1456;51.840;12.184;2023-05-23T01:02:26;8.07;;;7.97;;
2892;SDS011;1456;51.840;12.184;2023-05-23T01:04:54;8.77;;;8.57;;
2892;SDS011;1456;51.840;12.184;2023-05-23T01:07:20;7.63;;;7.53;;
2892;SDS011;1456;51.840;12.184;2023-05-23T01:09:46;8.10;;;7.90;;
2892;SDS011;1456;51.840;12.184;2023-05-23T01:17:40;8.00;;;7.90;;
2892;SDS011;1456;51.840;12.184;2023-05-23T01:20:23;7.77;;;7.57;;
2892;SDS011;1456;51.840;12.184;2023-05-23T01:27:59;6.40;;;6.30;;
2892;SDS011;1456;51.840;12.184;2023-05-23T01:30:28;5.80;;;5.70;;
2892;SDS011;1456;51.840;12.184;2023-05-23T01:32:56;6.03;;;5.93;;
2892;SDS011;1456;51.840;12.184;2023-05-23T01:35:26;6.90;;;6.80;;
2892;SDS011;1456;51.840;12.184;2023-05-23T01:37:55;6.60;;;6.50;;
2892;SDS011;1456;51.840;12.184;2023-05-23T01:40:21;7.50;;;7.30;;
2892;SDS011;1456;51.840;12.184;2023-05-23T01:42:48;6.40;;;6.30;;
2892;SDS011;1456;51.840;12.184;2023-05-23T01:45:14;6.87;;;6.77;;
2892;SDS011;1456;51.840;12.184;2023-05-23T01:47:41;6.03;;;5.83;;
2892;SDS011;1456;51.840;12.184;2023-05-23T01:50:08;5.70;;;5.50;;
2892;SDS011;1456;51.840;12.184;2023-05-23T01:52:35;4.43;;;4.33;;
2892;SDS011;1456;51.840;12.184;2023-05-23T01:55:02;3.90;;;3.90;;
2892;SDS011;1456;51.840;12.184;2023-05-23T01:57:36;3.20;;;3.20;;
2892;SDS011;1456;51.840;12.184;2023-05-23T02:00:03;4.30;;;4.20;;
2892;SDS011;1456;51.840;12.184;2023-05-23T02:02:31;3.03;;;3.03;;
2892;SDS011;1456;51.840;12.184;2023-05-23T02:04:58;4.00;;;4.00;;
2892;SDS011;1456;51.840;12.184;2023-05-23T02:07:24;3.80;;;3.80;;
2892;SDS011;1456;51.840;12.184;2023-05-23T02:09:49;3.70;;;3.70;;
2892;SDS011;1456;51.840;12.184;2023-05-23T02:12:15;3.87;;;3.77;;
2892;SDS011;1456;51.840;12.184;2023-05-23T02:14:40;2.93;;;2.93;;
2892;SDS011;1456;51.840;12.184;2023-05-23T02:17:06;3.50;;;3.40;;
2892;SDS011;1456;51.840;12.184;2023-05-23T02:19:35;2.97;;;2.97;;
2892;SDS011;1456;51.840;12.184;2023-05-23T02:22:01;3.33;;;3.23;;
2892;SDS011;1456;51.840;12.184;2023-05-23T02:24:27;3.43;;;3.43;;
2892;SDS011;1456;51.840;12.184;2023-05-23T02:26:53;3.10;;;3.10;;
2892;SDS011;1456;51.840;12.184;2023-05-23T02:29:19;3.67;;;3.47;;
2892;SDS011;1456;51.840;12.184;2023-05-23T02:31:47;2.90;;;2.80;;
2892;SDS011;1456;51.840;12.184;2023-05-23T02:34:13;3.27;;;3.17;;
2892;SDS011;1456;51.840;12.184;2023-05-23T02:36:39;3.53;;;3.50;;
2892;SDS011;1456;51.840;12.184;2023-05-23T02:39:05;3.50;;;3.40;;
2892;SDS011;1456;51.840;12.184;2023-05-23T02:41:30;5.13;;;3.40;;
2892;SDS011;1456;51.840;12.184;2023-05-23T02:43:56;4.53;;;4.43;;
2892;SDS011;1456;51.840;12.184;2023-05-23T02:46:22;4.70;;;4.53;;
2892;SDS011;1456;51.840;12.184;2023-05-23T02:48:48;3.30;;;3.20;;
2892;SDS011;1456;51.840;12.184;2023-05-23T02:51:14;4.13;;;3.80;;
2892;SDS011;1456;51.840;12.184;2023-05-23T02:53:40;3.50;;;3.50;;
2892;SDS011;1456;51.840;12.184;2023-05-23T02:56:06;3.90;;;3.80;;
2892;SDS011;1456;51.840;12.184;2023-05-23T02:58:33;4.20;;;4.10;;
2892;SDS011;1456;51.840;12.184;2023-05-23T03:01:04;3.33;;;3.33;;
2892;SDS011;1456;51.840;12.184;2023-05-23T03:03:30;4.17;;;4.07;;
2892;SDS011;1456;51.840;12.184;2023-05-23T03:06:04;4.37;;;4.27;;
2892;SDS011;1456;51.840;12.184;2023-05-23T03:08:30;3.57;;;3.47;;
2892;SDS011;1456;51.840;12.184;2023-05-23T03:10:56;3.13;;;2.90;;
2892;SDS011;1456;51.840;12.184;2023-05-23T03:13:22;2.00;;;2.00;;
2892;SDS011;1456;51.840;12.184;2023-05-23T03:15:48;1.17;;;1.17;;
2892;SDS011;1456;51.840;12.184;2023-05-23T03:18:14;2.00;;;1.30;;
2892;SDS011;1456;51.840;12.184;2023-05-23T03:20:40;2.03;;;1.93;;
2892;SDS011;1456;51.840;12.184;2023-05-23T03:23:06;1.00;;;1.00;;
2892;SDS011;1456;51.840;12.184;2023-05-23T03:25:32;1.03;;;1.03;;
2892;SDS011;1456;51.840;12.184;2023-05-23T03:28:00;1.27;;;0.90;;
2892;SDS011;1456;51.840;12.184;2023-05-23T03:30:26;1.10;;;1.10;;
2892;SDS011;1456;51.840;12.184;2023-05-23T03:32:53;0.83;;;0.83;;
2892;SDS011;1456;51.840;12.184;2023-05-23T03:35:19;1.13;;;1.13;;
2892;SDS011;1456;51.840;12.184;2023-05-23T03:37:45;0.97;;;0.97;;
2892;SDS011;1456;51.840;12.184;2023-05-23T03:40:11;0.70;;;0.70;;
2892;SDS011;1456;51.840;12.184;2023-05-23T03:42:37;1.53;;;1.53;;
2892;SDS011;1456;51.840;12.184;2023-05-23T03:45:03;2.20;;;1.77;;
2892;SDS011;1456;51.840;12.184;2023-05-23T03:47:29;1.07;;;1.07;;
2892;SDS011;1456;51.840;12.184;2023-05-23T03:49:55;1.50;;;1.10;;
2892;SDS011;1456;51.840;12.184;2023-05-23T03:52:21;0.70;;;0.60;;
2892;SDS011;1456;51.840;12.184;2023-05-23T03:54:47;1.50;;;1.40;;
2892;SDS011;1456;51.840;12.184;2023-05-23T03:57:15;0.90;;;0.90;;
2892;SDS011;1456;51.840;12.184;2023-05-23T03:59:41;2.23;;;2.13;;
2892;SDS011;1456;51.840;12.184;2023-05-23T04:02:07;2.03;;;0.87;;
2892;SDS011;1456;51.840;12.184;2023-05-23T04:04:33;0.97;;;0.97;;
2892;SDS011;1456;51.840;12.184;2023-05-23T04:07:00;0.60;;;0.60;;
2892;SDS011;1456;51.840;12.184;2023-05-23T04:09:26;1.03;;;1.03;;
2892;SDS011;1456;51.840;12.184;2023-05-23T04:11:52;1.60;;;1.53;;
2892;SDS011;1456;51.840;12.184;2023-05-23T04:14:17;3.60;;;2.00;;
2892;SDS011;1456;51.840;12.184;2023-05-23T04:16:46;0.80;;;0.80;;
2892;SDS011;1456;51.840;12.184;2023-05-23T04:19:12;4.97;;;0.80;;
2892;SDS011;1456;51.840;12.184;2023-05-23T04:21:37;1.83;;;1.73;;
2892;SDS011;1456;51.840;12.184;2023-05-23T04:24:03;2.00;;;1.90;;
2892;SDS011;1456;51.840;12.184;2023-05-23T04:26:30;2.53;;;2.40;;
2892;SDS011;1456;51.840;12.184;2023-05-23T04:28:55;3.07;;;2.70;;
2892;SDS011;1456;51.840;12.184;2023-05-23T04:31:21;1.53;;;1.43;;
2892;SDS011;1456;51.840;12.184;2023-05-23T04:33:47;1.57;;;1.50;;
2892;SDS011;1456;51.840;12.184;2023-05-23T04:36:13;2.30;;;2.20;;
2892;SDS011;1456;51.840;12.184;2023-05-23T04:38:39;2.60;;;2.50;;
2892;SDS011;1456;51.840;12.184;2023-05-23T04:41:05;1.57;;;1.20;;
2892;SDS011;1456;51.840;12.184;2023-05-23T04:43:34;1.33;;;1.27;;
2892;SDS011;1456;51.840;12.184;2023-05-23T04:46:01;1.07;;;1.07;;
2892;SDS011;1456;51.840;12.184;2023-05-23T04:48:27;0.70;;;0.70;;
2892;SDS011;1456;51.840;12.184;2023-05-23T04:50:54;3.73;;;1.30;;
2892;SDS011;1456;51.840;12.184;2023-05-23T04:53:23;1.47;;;1.37;;
2892;SDS011;1456;51.840;12.184;2023-05-23T04:55:49;1.67;;;1.50;;
2892;SDS011;1456;51.840;12.184;2023-05-23T04:58:15;2.27;;;1.53;;
2892;SDS011;1456;51.840;12.184;2023-05-23T05:00:40;4.80;;;1.90;;
2892;SDS011;1456;51.840;12.184;2023-05-23T05:03:06;3.67;;;1.50;;
2892;SDS011;1456;51.840;12.184;2023-05-23T05:05:33;1.73;;;1.70;;
2892;SDS011;1456;51.840;12.184;2023-05-23T05:07:59;1.23;;;1.00;;
2892;SDS011;1456;51.840;12.184;2023-05-23T05:10:25;2.40;;;2.30;;
2892;SDS011;1456;51.840;12.184;2023-05-23T05:12:50;1.63;;;1.53;;
2892;SDS011;1456;51.840;12.184;2023-05-23T05:15:16;1.40;;;1.30;;
2892;SDS011;1456;51.840;12.184;2023-05-23T05:17:43;1.67;;;1.60;;
2892;SDS011;1456;51.840;12.184;2023-05-23T05:20:09;2.70;;;2.60;;
2892;SDS011;1456;51.840;12.184;2023-05-23T05:22:38;1.53;;;1.53;;
2892;SDS011;1456;51.840;12.184;2023-05-23T05:25:05;3.33;;;3.03;;
2892;SDS011;1456;51.840;12.184;2023-05-23T05:27:31;0.70;;;0.70;;
2892;SDS011;1456;51.840;12.184;2023-05-23T05:30:04;0.73;;;0.73;;
2892;SDS011;1456;51.840;12.184;2023-05-23T05:32:33;2.20;;;2.10;;
2892;SDS011;1456;51.840;12.184;2023-05-23T05:34:59;1.93;;;1.83;;
2892;SDS011;1456;51.840;12.184;2023-05-23T05:37:25;2.33;;;2.20;;
2892;SDS011;1456;51.840;12.184;2023-05-23T05:39:51;1.20;;;1.10;;
2892;SDS011;1456;51.840;12.184;2023-05-23T05:42:18;1.30;;;1.20;;
2892;SDS011;1456;51.840;12.184;2023-05-23T05:44:44;1.70;;;1.60;;
2892;SDS011;1456;51.840;12.184;2023-05-23T05:47:11;0.93;;;0.60;;
2892;SDS011;1456;51.840;12.184;2023-05-23T05:49:37;1.70;;;1.43;;
2892;SDS011;1456;51.840;12.184;2023-05-23T05:52:02;0.97;;;0.83;;
2892;SDS011;1456;51.840;12.184;2023-05-23T05:54:29;0.83;;;0.83;;
2892;SDS011;1456;51.840;12.184;2023-05-23T05:56:54;2.07;;;1.97;;
2892;SDS011;1456;51.840;12.184;2023-05-23T05:59:20;0.73;;;0.73;;
2892;SDS011;1456;51.840;12.184;2023-05-23T06:01:46;1.17;;;1.17;;
2892;SDS011;1456;51.840;12.184;2023-05-23T06:04:11;1.63;;;1.53;;
2892;SDS011;1456;51.840;12.184;2023-05-23T06:06:38;1.37;;;1.33;;
2892;SDS011;1456;51.840;12.184;2023-05-23T06:09:04;4.63;;;3.50;;
2892;SDS011;1456;51.840;12.184;2023-05-23T06:11:30;1.73;;;1.67;;
2892;SDS011;1456;51.840;12.184;2023-05-23T06:13:56;2.40;;;1.50;;
2892;SDS011;1456;51.840;12.184;2023-05-23T06:16:22;1.83;;;1.73;;
2892;SDS011;1456;51.840;12.184;2023-05-23T06:18:47;3.87;;;3.50;;
2892;SDS011;1456;51.840;12.184;2023-05-23T06:21:13;2.93;;;2.83;;
2892;SDS011;1456;51.840;12.184;2023-05-23T06:23:38;6.00;;;5.50;;
2892;SDS011;1456;51.840;12.184;2023-05-23T06:26:04;6.37;;;5.90;;
2892;SDS011;1456;51.840;12.184;2023-05-23T06:28:34;4.80;;;4.50;;
2892;SDS011;1456;51.840;12.184;2023-05-23T06:31:01;4.30;;;3.90;;
2892;SDS011;1456;51.840;12.184;2023-05-23T06:33:27;3.37;;;3.20;;
2892;SDS011;1456;51.840;12.184;2023-05-23T06:35:53;10.70;;;6.00;;
2892;SDS011;1456;51.840;12.184;2023-05-23T06:38:19;5.60;;;3.63;;
2892;SDS011;1456;51.840;12.184;2023-05-23T06:40:44;3.73;;;3.53;;
2892;SDS011;1456;51.840;12.184;2023-05-23T06:43:10;3.67;;;3.37;;
2892;SDS011;1456;51.840;12.184;2023-05-23T06:45:35;5.90;;;5.70;;
2892;SDS011;1456;51.840;12.184;2023-05-23T06:48:02;5.90;;;5.43;;
2892;SDS011;1456;51.840;12.184;2023-05-23T06:50:28;3.37;;;3.17;;
2892;SDS011;1456;51.840;12.184;2023-05-23T06:52:54;3.87;;;3.67;;
2892;SDS011;1456;51.840;12.184;2023-05-23T06:55:20;12.57;;;3.37;;
2892;SDS011;1456;51.840;12.184;2023-05-23T06:57:46;2.07;;;1.97;;
2892;SDS011;1456;51.840;12.184;2023-05-23T07:00:15;1.07;;;1.07;;
2892;SDS011;1456;51.840;12.184;2023-05-23T07:02:42;4.83;;;1.70;;
2892;SDS011;1456;51.840;12.184;2023-05-23T07:05:09;1.57;;;1.50;;
2892;SDS011;1456;51.840;12.184;2023-05-23T07:07:35;2.00;;;1.90;;
2892;SDS011;1456;51.840;12.184;2023-05-23T07:10:00;1.40;;;1.30;;
2892;SDS011;1456;51.840;12.184;2023-05-23T07:12:26;3.40;;;2.40;;
2892;SDS011;1456;51.840;12.184;2023-05-23T07:14:52;3.37;;;2.47;;
2892;SDS011;1456;51.840;12.184;2023-05-23T07:17:19;2.70;;;2.60;;
2892;SDS011;1456;51.840;12.184;2023-05-23T07:19:44;3.50;;;2.20;;
2892;SDS011;1456;51.840;12.184;2023-05-23T07:22:10;2.07;;;1.30;;
2892;SDS011;1456;51.840;12.184;2023-05-23T07:27:06;1.33;;;1.33;;
2892;SDS011;1456;51.840;12.184;2023-05-23T07:29:32;3.63;;;2.80;;
2892;SDS011;1456;51.840;12.184;2023-05-23T07:32:01;1.10;;;1.10;;
2892;SDS011;1456;51.840;12.184;2023-05-23T07:34:27;2.57;;;2.33;;
2892;SDS011;1456;51.840;12.184;2023-05-23T07:36:53;0.90;;;0.90;;
2892;SDS011;1456;51.840;12.184;2023-05-23T07:39:19;2.03;;;1.97;;
2892;SDS011;1456;51.840;12.184;2023-05-23T07:41:46;1.97;;;1.97;;
2892;SDS011;1456;51.840;12.184;2023-05-23T07:44:13;1.10;;;1.10;;
2892;SDS011;1456;51.840;12.184;2023-05-23T07:46:38;1.87;;;1.87;;
2892;SDS011;1456;51.840;12.184;2023-05-23T07:49:04;2.83;;;0.90;;
2892;SDS011;1456;51.840;12.184;2023-05-23T07:51:31;0.70;;;0.70;;
2892;SDS011;1456;51.840;12.184;2023-05-23T07:53:57;1.43;;;1.43;;
2892;SDS011;1456;51.840;12.184;2023-05-23T07:56:22;1.23;;;1.23;;
2892;SDS011;1456;51.840;12.184;2023-05-23T07:58:48;5.60;;;2.33;;
2892;SDS011;1456;51.840;12.184;2023-05-23T08:01:14;0.90;;;0.90;;
2892;SDS011;1456;51.840;12.184;2023-05-23T08:03:40;1.47;;;1.43;;
2892;SDS011;1456;51.840;12.184;2023-05-23T08:06:06;0.87;;;0.87;;
2892;SDS011;1456;51.840;12.184;2023-05-23T08:08:32;2.07;;;2.00;;
2892;SDS011;1456;51.840;12.184;2023-05-23T08:10:59;3.23;;;2.20;;
2892;SDS011;1456;51.840;12.184;2023-05-23T08:13:25;1.00;;;1.00;;
2892;SDS011;1456;51.840;12.184;2023-05-23T08:15:50;4.23;;;0.97;;
2892;SDS011;1456;51.840;12.184;2023-05-23T08:18:16;1.13;;;1.13;;
2892;SDS011;1456;51.840;12.184;2023-05-23T08:20:42;1.87;;;1.83;;
2892;SDS011;1456;51.840;12.184;2023-05-23T08:23:08;0.97;;;0.97;;
2892;SDS011;1456;51.840;12.184;2023-05-23T08:25:33;0.80;;;0.80;;
2892;SDS011;1456;51.840;12.184;2023-05-23T08:28:00;1.33;;;1.33;;
2892;SDS011;1456;51.840;12.184;2023-05-23T08:30:26;1.03;;;1.03;;
2892;SDS011;1456;51.840;12.184;2023-05-23T08:32:53;1.80;;;1.70;;
2892;SDS011;1456;51.840;12.184;2023-05-23T08:35:19;2.07;;;1.97;;
2892;SDS011;1456;51.840;12.184;2023-05-23T08:37:46;2.37;;;2.17;;
2892;SDS011;1456;51.840;12.184;2023-05-23T08:40:13;2.40;;;1.30;;
2892;SDS011;1456;51.840;12.184;2023-05-23T08:42:47;1.40;;;1.40;;
2892;SDS011;1456;51.840;12.184;2023-05-23T08:45:13;3.33;;;3.23;;
2892;SDS011;1456;51.840;12.184;2023-05-23T08:47:44;2.17;;;2.13;;
2892;SDS011;1456;51.840;12.184;2023-05-23T08:50:11;2.60;;;2.40;;
2892;SDS011;1456;51.840;12.184;2023-05-23T08:52:42;2.47;;;2.00;;
2892;SDS011;1456;51.840;12.184;2023-05-23T08:55:11;3.70;;;2.83;;
2892;SDS011;1456;51.840;12.184;2023-05-23T08:57:38;2.47;;;2.37;;
2892;SDS011;1456;51.840;12.184;2023-05-23T09:00:09;3.00;;;2.80;;
2892;SDS011;1456;51.840;12.184;2023-05-23T09:02:39;1.90;;;1.90;;
2892;SDS011;1456;51.840;12.184;2023-05-23T09:05:09;1.80;;;1.80;;
2892;SDS011;1456;51.840;12.184;2023-05-23T09:07:35;1.97;;;1.97;;
2892;SDS011;1456;51.840;12.184;2023-05-23T09:10:02;1.23;;;1.23;;
2892;SDS011;1456;51.840;12.184;2023-05-23T09:12:29;1.93;;;1.83;;
2892;SDS011;1456;51.840;12.184;2023-05-23T09:14:56;2.57;;;2.47;;
2892;SDS011;1456;51.840;12.184;2023-05-23T09:17:22;1.40;;;1.40;;
2892;SDS011;1456;51.840;12.184;2023-05-23T09:19:48;1.80;;;1.80;;
2892;SDS011;1456;51.840;12.184;2023-05-23T09:22:14;1.87;;;1.87;;
2892;SDS011;1456;51.840;12.184;2023-05-23T09:24:39;2.23;;;2.13;;
2892;SDS011;1456;51.840;12.184;2023-05-23T09:27:08;2.30;;;2.20;;
2892;SDS011;1456;51.840;12.184;2023-05-23T09:29:37;1.93;;;1.93;;
2892;SDS011;1456;51.840;12.184;2023-05-23T09:32:14;2.73;;;2.73;;
2892;SDS011;1456;51.840;12.184;2023-05-23T09:34:55;3.70;;;3.50;;
2892;SDS011;1456;51.840;12.184;2023-05-23T09:37:24;3.13;;;3.13;;
2892;SDS011;1456;51.840;12.184;2023-05-23T09:40:09;2.57;;;2.47;;
2892;SDS011;1456;51.840;12.184;2023-05-23T09:42:43;2.53;;;2.53;;
2892;SDS011;1456;51.840;12.184;2023-05-23T09:45:10;1.87;;;1.87;;
2892;SDS011;1456;51.840;12.184;2023-05-23T09:47:36;3.37;;;3.37;;
2892;SDS011;1456;51.840;12.184;2023-05-23T09:50:02;2.57;;;2.47;;
2892;SDS011;1456;51.840;12.184;2023-05-23T09:52:37;3.20;;;3.10;;
2892;SDS011;1456;51.840;12.184;2023-05-23T09:55:03;2.53;;;2.43;;
2892;SDS011;1456;51.840;12.184;2023-05-23T09:57:28;2.37;;;2.27;;
2892;SDS011;1456;51.840;12.184;2023-05-23T09:59:59;2.50;;;2.30;;
2892;SDS011;1456;51.840;12.184;2023-05-23T10:08:06;1.10;;;1.10;;
2892;SDS011;1456;51.840;12.184;2023-05-23T10:10:43;1.50;;;1.50;;
2892;SDS011;1456;51.840;12.184;2023-05-23T10:13:24;3.13;;;2.60;;
2892;SDS011;1456;51.840;12.184;2023-05-23T10:15:57;1.40;;;1.40;;
2892;SDS011;1456;51.840;12.184;2023-05-23T10:18:28;2.30;;;1.13;;
2892;SDS011;1456;51.840;12.184;2023-05-23T10:21:00;0.97;;;0.83;;
2892;SDS011;1456;51.840;12.184;2023-05-23T10:23:31;2.40;;;2.20;;
2892;SDS011;1456;51.840;12.184;2023-05-23T10:25:57;1.20;;;1.20;;
2892;SDS011;1456;51.840;12.184;2023-05-23T10:28:24;1.30;;;1.30;;
2892;SDS011;1456;51.840;12.184;2023-05-23T10:30:51;4.93;;;2.40;;
2892;SDS011;1456;51.840;12.184;2023-05-23T10:33:16;1.73;;;1.70;;
2892;SDS011;1456;51.840;12.184;2023-05-23T10:38:21;1.27;;;1.27;;
2892;SDS011;1456;51.840;12.184;2023-05-23T10:43:52;1.27;;;1.27;;
2892;SDS011;1456;51.840;12.184;2023-05-23T10:49:40;2.07;;;2.07;;
2892;SDS011;1456;51.840;12.184;2023-05-23T10:52:10;1.03;;;1.03;;
2892;SDS011;1456;51.840;12.184;2023-05-23T10:54:41;1.20;;;1.20;;
2892;SDS011;1456;51.840;12.184;2023-05-23T10:57:14;2.80;;;1.77;;
2892;SDS011;1456;51.840;12.184;2023-05-23T10:59:41;1.83;;;1.83;;
2892;SDS011;1456;51.840;12.184;2023-05-23T11:02:28;1.33;;;1.33;;
2892;SDS011;1456;51.840;12.184;2023-05-23T11:08:05;0.60;;;0.60;;
2892;SDS011;1456;51.840;12.184;2023-05-23T11:10:30;1.83;;;1.77;;
2892;SDS011;1456;51.840;12.184;2023-05-23T11:13:04;0.70;;;0.70;;
2892;SDS011;1456;51.840;12.184;2023-05-23T11:15:41;0.70;;;0.70;;
2892;SDS011;1456;51.840;12.184;2023-05-23T11:18:08;9.10;;;2.47;;
2892;SDS011;1456;51.840;12.184;2023-05-23T11:20:36;1.33;;;1.27;;
2892;SDS011;1456;51.840;12.184;2023-05-23T11:23:04;0.80;;;0.80;;
2892;SDS011;1456;51.840;12.184;2023-05-23T11:25:42;0.80;;;0.80;;
2892;SDS011;1456;51.840;12.184;2023-05-23T11:28:18;0.60;;;0.60;;
2892;SDS011;1456;51.840;12.184;2023-05-23T11:30:46;0.67;;;0.67;;
2892;SDS011;1456;51.840;12.184;2023-05-23T11:33:15;0.70;;;0.70;;
2892;SDS011;1456;51.840;12.184;2023-05-23T11:35:43;0.43;;;0.43;;
2892;SDS011;1456;51.840;12.184;2023-05-23T11:38:10;0.50;;;0.50;;
2892;SDS011;1456;51.840;12.184;2023-05-23T11:43:08;0.50;;;0.50;;
2892;SDS011;1456;51.840;12.184;2023-05-23T11:45:37;1.07;;;1.07;;
2892;SDS011;1456;51.840;12.184;2023-05-23T11:48:07;2.40;;;1.07;;
2892;SDS011;1456;51.840;12.184;2023-05-23T11:50:34;0.50;;;0.50;;
2892;SDS011;1456;51.840;12.184;2023-05-23T11:53:15;11.37;;;1.17;;
2892;SDS011;1456;51.840;12.184;2023-05-23T11:55:56;2.00;;;1.63;;
2892;SDS011;1456;51.840;12.184;2023-05-23T12:01:04;0.30;;;0.30;;
2892;SDS011;1456;51.840;12.184;2023-05-23T12:03:34;0.70;;;0.70;;
2892;SDS011;1456;51.840;12.184;2023-05-23T12:06:19;0.50;;;0.50;;
2892;SDS011;1456;51.840;12.184;2023-05-23T12:08:46;0.90;;;0.50;;
2892;SDS011;1456;51.840;12.184;2023-05-23T12:11:11;1.53;;;1.43;;
2892;SDS011;1456;51.840;12.184;2023-05-23T12:13:39;1.13;;;1.13;;
2892;SDS011;1456;51.840;12.184;2023-05-23T12:16:06;1.10;;;1.10;;
2892;SDS011;1456;51.840;12.184;2023-05-23T12:18:32;1.40;;;1.33;;
2892;SDS011;1456;51.840;12.184;2023-05-23T12:20:59;0.73;;;0.73;;
2892;SDS011;1456;51.840;12.184;2023-05-23T12:23:27;1.00;;;1.00;;
2892;SDS011;1456;51.840;12.184;2023-05-23T12:28:35;0.80;;;0.80;;
2892;SDS011;1456;51.840;12.184;2023-05-23T12:33:42;1.63;;;1.20;;
2892;SDS011;1456;51.840;12.184;2023-05-23T12:36:12;0.77;;;0.73;;
2892;SDS011;1456;51.840;12.184;2023-05-23T12:38:40;0.50;;;0.50;;
2892;SDS011;1456;51.840;12.184;2023-05-23T12:41:15;0.70;;;0.70;;
2892;SDS011;1456;51.840;12.184;2023-05-23T12:43:49;0.70;;;0.70;;
2892;SDS011;1456;51.840;12.184;2023-05-23T12:46:16;0.57;;;0.57;;
2892;SDS011;1456;51.840;12.184;2023-05-23T12:48:44;0.70;;;0.70;;
2892;SDS011;1456;51.840;12.184;2023-05-23T12:51:11;1.73;;;0.70;;
2892;SDS011;1456;51.840;12.184;2023-05-23T12:53:37;0.70;;;0.70;;
2892;SDS011;1456;51.840;12.184;2023-05-23T12:56:03;0.50;;;0.50;;
2892;SDS011;1456;51.840;12.184;2023-05-23T12:58:29;0.60;;;0.60;;
2892;SDS011;1456;51.840;12.184;2023-05-23T13:00:56;2.87;;;2.67;;
2892;SDS011;1456;51.840;12.184;2023-05-23T13:03:22;0.70;;;0.70;;
2892;SDS011;1456;51.840;12.184;2023-05-23T13:05:48;1.23;;;1.23;;
2892;SDS011;1456;51.840;12.184;2023-05-23T13:08:14;0.80;;;0.80;;
2892;SDS011;1456;51.840;12.184;2023-05-23T13:10:40;1.73;;;1.20;;
2892;SDS011;1456;51.840;12.184;2023-05-23T13:13:06;1.27;;;1.27;;
2892;SDS011;1456;51.840;12.184;2023-05-23T13:15:32;0.60;;;0.60;;
2892;SDS011;1456;51.840;12.184;2023-05-23T13:17:57;0.70;;;0.70;;
2892;SDS011;1456;51.840;12.184;2023-05-23T13:20:23;0.80;;;0.70;;
2892;SDS011;1456;51.840;12.184;2023-05-23T13:22:53;0.43;;;0.43;;
2892;SDS011;1456;51.840;12.184;2023-05-23T13:25:22;0.40;;;0.40;;
2892;SDS011;1456;51.840;12.184;2023-05-23T13:27:48;3.50;;;0.90;;
2892;SDS011;1456;51.840;12.184;2023-05-23T13:30:14;0.60;;;0.60;;
2892;SDS011;1456;51.840;12.184;2023-05-23T13:32:40;1.00;;;1.00;;
2892;SDS011;1456;51.840;12.184;2023-05-23T13:35:13;1.50;;;1.47;;
2892;SDS011;1456;51.840;12.184;2023-05-23T13:37:41;3.87;;;1.03;;
2892;SDS011;1456;51.840;12.184;2023-05-23T13:40:07;1.27;;;0.57;;
2892;SDS011;1456;51.840;12.184;2023-05-23T13:42:37;1.37;;;1.07;;
2892;SDS011;1456;51.840;12.184;2023-05-23T13:45:02;1.20;;;1.20;;
2892;SDS011;1456;51.840;12.184;2023-05-23T13:47:31;1.43;;;1.43;;
2892;SDS011;1456;51.840;12.184;2023-05-23T13:49:56;0.60;;;0.60;;
2892;SDS011;1456;51.840;12.184;2023-05-23T13:52:22;0.40;;;0.40;;
2892;SDS011;1456;51.840;12.184;2023-05-23T13:54:48;0.90;;;0.70;;
2892;SDS011;1456;51.840;12.184;2023-05-23T13:57:13;0.50;;;0.50;;
2892;SDS011;1456;51.840;12.184;2023-05-23T13:59:40;0.30;;;0.30;;
2892;SDS011;1456;51.840;12.184;2023-05-23T14:02:06;0.80;;;0.53;;
2892;SDS011;1456;51.840;12.184;2023-05-23T14:04:32;0.50;;;0.50;;
2892;SDS011;1456;51.840;12.184;2023-05-23T14:06:57;0.43;;;0.43;;
2892;SDS011;1456;51.840;12.184;2023-05-23T14:09:24;0.43;;;0.43;;
2892;SDS011;1456;51.840;12.184;2023-05-23T14:11:51;1.23;;;0.60;;
2892;SDS011;1456;51.840;12.184;2023-05-23T14:14:17;0.60;;;0.60;;
2892;SDS011;1456;51.840;12.184;2023-05-23T14:16:44;0.67;;;0.50;;
2892;SDS011;1456;51.840;12.184;2023-05-23T14:19:10;0.83;;;0.83;;
2892;SDS011;1456;51.840;12.184;2023-05-23T14:21:36;0.40;;;0.40;;
2892;SDS011;1456;51.840;12.184;2023-05-23T14:24:02;0.93;;;0.87;;
2892;SDS011;1456;51.840;12.184;2023-05-23T14:26:28;1.07;;;0.80;;
2892;SDS011;1456;51.840;12.184;2023-05-23T14:28:55;0.60;;;0.60;;
2892;SDS011;1456;51.840;12.184;2023-05-23T14:31:21;1.67;;;1.23;;
2892;SDS011;1456;51.840;12.184;2023-05-23T14:33:46;1.13;;;0.90;;
2892;SDS011;1456;51.840;12.184;2023-05-23T14:36:15;0.70;;;0.70;;
2892;SDS011;1456;51.840;12.184;2023-05-23T14:38:41;1.30;;;1.30;;
2892;SDS011;1456;51.840;12.184;2023-05-23T14:41:10;1.03;;;0.90;;
2892;SDS011;1456;51.840;12.184;2023-05-23T14:43:37;0.50;;;0.40;;
2892;SDS011;1456;51.840;12.184;2023-05-23T14:46:03;1.30;;;1.07;;
2892;SDS011;1456;51.840;12.184;2023-05-23T14:48:29;1.23;;;1.23;;
2892;SDS011;1456;51.840;12.184;2023-05-23T14:50:55;1.33;;;1.33;;
2892;SDS011;1456;51.840;12.184;2023-05-23T14:53:21;0.53;;;0.53;;
2892;SDS011;1456;51.840;12.184;2023-05-23T14:55:48;1.60;;;0.50;;
2892;SDS011;1456;51.840;12.184;2023-05-23T14:58:13;0.40;;;0.40;;
2892;SDS011;1456;51.840;12.184;2023-05-23T15:00:39;0.40;;;0.37;;
2892;SDS011;1456;51.840;12.184;2023-05-23T15:03:05;2.40;;;2.23;;
2892;SDS011;1456;51.840;12.184;2023-05-23T15:05:32;0.50;;;0.50;;
2892;SDS011;1456;51.840;12.184;2023-05-23T15:08:00;0.50;;;0.50;;
2892;SDS011;1456;51.840;12.184;2023-05-23T15:10:27;0.30;;;0.30;;
2892;SDS011;1456;51.840;12.184;2023-05-23T15:12:53;0.57;;;0.57;;
2892;SDS011;1456;51.840;12.184;2023-05-23T15:15:19;2.73;;;1.43;;
2892;SDS011;1456;51.840;12.184;2023-05-23T15:17:47;1.17;;;0.40;;
2892;SDS011;1456;51.840;12.184;2023-05-23T15:20:13;0.50;;;0.50;;
2892;SDS011;1456;51.840;12.184;2023-05-23T15:22:39;1.60;;;1.60;;
2892;SDS011;1456;51.840;12.184;2023-05-23T15:25:06;0.50;;;0.50;;
2892;SDS011;1456;51.840;12.184;2023-05-23T15:27:33;1.60;;;1.50;;
2892;SDS011;1456;51.840;12.184;2023-05-23T15:29:58;1.47;;;1.37;;
2892;SDS011;1456;51.840;12.184;2023-05-23T15:32:24;3.27;;;1.00;;
2892;SDS011;1456;51.840;12.184;2023-05-23T15:34:51;1.07;;;0.80;;
2892;SDS011;1456;51.840;12.184;2023-05-23T15:37:16;0.90;;;0.90;;
2892;SDS011;1456;51.840;12.184;2023-05-23T15:39:42;5.70;;;2.40;;
2892;SDS011;1456;51.840;12.184;2023-05-23T15:42:08;2.10;;;1.80;;